Time;durP1;ratioP1;P1;durP2;ratioP2;P2;SDS_P1;SDS_P2;PMS_P1;PMS_P2;Temp;Humidity;BMP_temperature;BMP_pressure;BME280_temperature;BME280_humidity;BME280_pressure;Samples;Min_cycle;Max_cycle;Signal;HPM_P1;HPM_P2
2021/11/21 00:02:22;;;;;;;15.15;3.90;;;;;;;6.44;61.96;99878.45;1758071;79;21043;-68
2021/11/21 00:04:50;;;;;;;11.57;4.28;;;;;;;6.41;62.07;99874.75;1760088;79;20989;-70
2021/11/21 00:07:18;;;;;;;7.28;2.90;;;;;;;6.44;62.20;99886.30;1767282;79;21087;-74
2021/11/21 00:09:45;;;;;;;8.28;3.10;;;;;;;6.53;62.15;99874.83;1774528;79;21527;-71
2021/11/21 00:12:12;;;;;;;9.38;3.47;;;;;;;6.56;62.13;99878.05;1765702;79;21078;-69
2021/11/21 00:14:39;;;;;;;12.03;3.45;;;;;;;6.52;62.27;99887.04;1769078;79;21592;-71
2021/11/21 00:17:07;;;;;;;7.50;3.33;;;;;;;6.48;62.31;99877.28;1757716;79;21525;-71
2021/11/21 00:19:35;;;;;;;9.05;3.50;;;;;;;6.45;62.42;99878.80;1770221;79;21234;-69
2021/11/21 00:22:03;;;;;;;8.45;3.65;;;;;;;6.39;62.55;99877.95;1734672;79;21605;-67
2021/11/21 00:24:31;;;;;;;9.25;4.05;;;;;;;6.36;62.62;99875.55;1745310;81;21103;-67
2021/11/21 00:26:59;;;;;;;8.18;3.35;;;;;;;6.33;62.81;99879.67;1761400;79;20989;-67
2021/11/21 00:29:26;;;;;;;9.63;3.27;;;;;;;6.32;62.89;99884.08;1755931;79;21536;-67
2021/11/21 00:31:52;;;;;;;9.48;3.05;;;;;;;6.28;63.02;99884.39;1761920;80;21139;-71
2021/11/21 00:34:19;;;;;;;7.53;3.05;;;;;;;6.29;63.13;99886.07;1765168;80;21040;-68
2021/11/21 00:36:46;;;;;;;11.93;3.20;;;;;;;6.37;63.10;99882.45;1765818;79;21043;-71
2021/11/21 00:39:12;;;;;;;9.83;3.40;;;;;;;6.43;63.07;99889.84;1762229;80;21051;-69
2021/11/21 00:41:40;;;;;;;9.43;3.50;;;;;;;6.43;63.10;99885.09;1746498;81;21530;-68
2021/11/21 00:44:07;;;;;;;8.65;3.55;;;;;;;6.40;63.35;99884.00;1743554;80;21083;-71
2021/11/21 00:46:35;;;;;;;8.00;3.70;;;;;;;6.37;63.51;99885.06;1763254;79;21067;-68
2021/11/21 00:49:04;;;;;;;9.18;3.52;;;;;;;6.35;63.56;99880.39;1759413;80;21019;-66
2021/11/21 00:51:31;;;;;;;12.68;3.20;;;;;;;6.35;63.69;99875.17;1780257;80;21533;-67
2021/11/21 00:54:07;;;;;;;8.03;3.42;;;;;;;6.35;63.75;99870.42;1751420;79;21051;-68
2021/11/21 00:56:26;;;;;;;7.28;3.05;;;;;;;6.36;63.93;99872.93;1760745;80;21238;-70
2021/11/21 00:58:52;;;;;;;8.73;3.65;;;;;;;6.37;63.91;99868.53;1729577;80;21411;-69
2021/11/21 01:01:19;;;;;;;9.08;3.60;;;;;;;6.38;63.93;99859.28;1782136;79;21109;-67
2021/11/21 01:03:48;;;;;;;9.20;3.80;;;;;;;6.45;63.93;99859.20;1779243;79;21086;-69
2021/11/21 01:06:15;;;;;;;9.80;3.60;;;;;;;6.56;63.85;99857.63;1784082;79;21054;-66
2021/11/21 01:08:41;;;;;;;8.25;3.70;;;;;;;6.64;63.75;99853.95;1765488;80;21023;-72
2021/11/21 01:11:09;;;;;;;10.25;3.65;;;;;;;6.67;63.80;99854.59;1745917;80;20988;-69
2021/11/21 01:13:37;;;;;;;9.40;3.98;;;;;;;6.67;63.86;99845.90;1783192;79;21010;-67
2021/11/21 01:16:04;;;;;;;9.60;3.25;;;;;;;6.68;63.89;99838.42;1746203;80;21133;-70
2021/11/21 01:18:33;;;;;;;12.15;4.03;;;;;;;6.70;63.89;99839.14;1781159;79;21027;-66
2021/11/21 01:21:01;;;;;;;10.80;3.80;;;;;;;6.72;63.96;99829.88;1781240;79;20998;-70
2021/11/21 01:23:27;;;;;;;11.25;4.03;;;;;;;6.72;64.07;99821.55;1773513;79;20992;-67
2021/11/21 01:25:53;;;;;;;7.37;3.10;;;;;;;6.72;64.14;99814.20;1771422;79;21051;-66
2021/11/21 01:28:20;;;;;;;7.65;3.25;;;;;;;6.72;64.25;99822.86;1782173;79;21017;-68
2021/11/21 01:30:47;;;;;;;10.68;4.00;;;;;;;6.77;64.24;99819.44;1784647;79;21117;-68
2021/11/21 01:33:13;;;;;;;8.50;3.40;;;;;;;6.88;64.11;99818.19;1771141;79;21837;-68
2021/11/21 01:35:40;;;;;;;12.60;3.47;;;;;;;6.96;64.04;99812.41;1767776;80;21035;-69
2021/11/21 01:38:07;;;;;;;10.25;4.28;;;;;;;6.99;63.91;99805.64;1767283;78;21027;-70
2021/11/21 01:40:35;;;;;;;9.68;4.12;;;;;;;6.98;63.89;99797.91;1783315;79;20995;-67
2021/11/21 01:43:04;;;;;;;8.23;3.10;;;;;;;6.99;63.82;99791.70;1784643;79;21062;-68
2021/11/21 01:45:32;;;;;;;9.40;3.35;;;;;;;6.97;63.79;99790.99;1780661;79;21105;-67
2021/11/21 01:47:59;;;;;;;13.30;3.92;;;;;;;6.93;63.86;99785.64;1762389;79;21378;-68
2021/11/21 01:50:30;;;;;;;12.60;3.62;;;;;;;6.87;64.07;99785.13;1768854;79;21046;-70
2021/11/21 01:52:57;;;;;;;11.60;4.35;;;;;;;6.82;64.23;99774.66;1753720;79;22271;-67
2021/11/21 01:55:24;;;;;;;7.95;3.90;;;;;;;6.81;64.33;99772.52;1771691;79;21722;-68
2021/11/21 01:57:53;;;;;;;7.50;3.60;;;;;;;6.92;64.36;99778.73;1784100;80;22155;-68
2021/11/21 02:00:20;;;;;;;6.40;3.20;;;;;;;7.00;64.35;99773.77;1772920;78;21114;-71
2021/11/21 02:02:47;;;;;;;8.98;3.65;;;;;;;7.06;64.30;99772.83;1758823;79;21498;-68
2021/11/21 02:05:13;;;;;;;9.20;3.83;;;;;;;7.04;64.41;99766.03;1744116;80;21509;-68
2021/11/21 02:07:42;;;;;;;9.55;3.37;;;;;;;7.02;64.50;99767.94;1747380;80;21071;-67
2021/11/21 02:10:11;;;;;;;7.12;3.83;;;;;;;6.98;64.64;99763.90;1771355;81;21082;-66
2021/11/21 02:12:39;;;;;;;9.03;3.75;;;;;;;6.96;64.75;99765.77;1746422;79;21023;-68
2021/11/21 02:15:15;;;;;;;12.73;4.12;;;;;;;6.93;64.80;99761.62;1753024;80;21086;-67
2021/11/21 02:17:43;;;;;;;8.25;3.40;;;;;;;6.90;64.99;99757.09;1767429;79;21063;-68
2021/11/21 02:20:13;;;;;;;13.93;4.47;;;;;;;6.86;65.15;99765.16;1757137;79;21009;-68
2021/11/21 02:22:41;;;;;;;12.82;3.55;;;;;;;6.92;65.23;99766.97;1756328;80;22226;-69
2021/11/21 02:25:09;;;;;;;8.10;3.33;;;;;;;6.98;65.20;99763.41;1761925;81;21024;-69
2021/11/21 02:27:36;;;;;;;9.15;3.35;;;;;;;7.05;65.24;99762.48;1749423;80;21039;-67
2021/11/21 02:30:06;;;;;;;9.63;4.62;;;;;;;7.08;65.24;99766.18;1751139;79;21056;-71
2021/11/21 02:32:32;;;;;;;8.88;3.67;;;;;;;7.06;65.28;99758.89;1762071;79;21022;-71
2021/11/21 02:35:00;;;;;;;7.72;3.67;;;;;;;7.03;65.22;99769.13;1782277;79;21053;-68
2021/11/21 02:37:27;;;;;;;8.80;3.42;;;;;;;6.98;65.27;99754.74;1761983;79;21038;-67
2021/11/21 02:39:54;;;;;;;7.35;3.37;;;;;;;6.90;65.42;99754.00;1758412;79;21043;-70
2021/11/21 02:42:30;;;;;;;11.45;4.60;;;;;;;6.84;65.58;99750.07;1731621;81;21044;-69
2021/11/21 02:44:57;;;;;;;;;;;;;;;6.78;65.73;99749.20;1773732;79;21027;-70
2021/11/21 02:47:25;;;;;;;8.30;4.10;;;;;;;6.75;65.90;99757.27;1771590;80;21041;-70
2021/11/21 02:49:53;;;;;;;14.00;3.90;;;;;;;6.70;66.11;99752.86;1766586;79;21640;-69
2021/11/21 02:52:19;;;;;;;9.38;4.30;;;;;;;6.79;66.04;99744.80;1771646;79;21047;-70
2021/11/21 02:54:55;;;;;;;9.13;4.42;;;;;;;6.87;66.01;99745.89;1763471;79;21043;-70
2021/11/21 02:57:22;;;;;;;;;;;;;;;6.92;66.00;99740.81;1736628;81;21053;-69
2021/11/21 02:59:49;;;;;;;11.43;4.35;;;;;;;6.93;66.06;99729.41;1684803;83;21449;-70
2021/11/21 03:02:18;;;;;;;7.47;3.92;;;;;;;6.83;66.22;99723.55;1729913;81;21094;-67
2021/11/21 03:04:46;;;;;;;6.55;3.52;;;;;;;6.79;66.45;99722.12;1745669;80;21037;-71
2021/11/21 03:07:13;;;;;;;9.18;3.77;;;;;;;6.76;66.61;99719.73;1745921;82;21045;-67
2021/11/21 03:09:41;;;;;;;8.55;3.77;;;;;;;6.73;66.79;99725.19;1740563;80;21038;-69
2021/11/21 03:12:08;;;;;;;8.15;3.45;;;;;;;6.77;66.97;99721.38;1742154;82;21318;-68
2021/11/21 03:14:35;;;;;;;7.85;3.92;;;;;;;6.87;67.04;99714.99;1739496;80;20995;-69
2021/11/21 03:17:04;;;;;;;7.65;4.12;;;;;;;6.97;67.05;99722.98;1725981;80;21034;-71
2021/11/21 03:19:32;;;;;;;8.10;3.83;;;;;;;6.99;67.17;99710.62;1736500;80;21099;-68
2021/11/21 03:21:59;;;;;;;10.13;4.28;;;;;;;6.98;67.27;99695.89;1754369;78;21093;-68
2021/11/21 03:24:26;;;;;;;8.25;3.50;;;;;;;6.99;67.40;99706.23;1779819;79;21070;-69
2021/11/21 03:26:53;;;;;;;8.75;3.70;;;;;;;6.99;67.49;99709.31;1781276;80;21051;-68
2021/11/21 03:29:19;;;;;;;8.33;4.00;;;;;;;7.00;67.64;99705.76;1756591;79;21016;-67
2021/11/21 03:31:46;;;;;;;12.13;4.25;;;;;;;7.01;67.83;99706.09;1783999;79;21098;-67
2021/11/21 03:34:12;;;;;;;9.80;3.98;;;;;;;7.07;68.09;99706.95;1789356;79;20968;-67
2021/11/21 03:36:40;;;;;;;7.33;3.50;;;;;;;7.17;67.99;99707.91;1788465;79;21132;-68
2021/11/21 03:39:08;;;;;;;10.20;3.70;;;;;;;7.29;68.12;99709.23;1753578;79;21562;-68
2021/11/21 03:41:36;;;;;;;8.20;3.72;;;;;;;7.34;68.05;99718.87;1793995;79;22829;-68
2021/11/21 03:44:05;;;;;;;7.22;4.20;;;;;;;7.34;68.13;99714.94;1787680;79;21096;-69
2021/11/21 03:46:36;;;;;;;9.38;4.37;;;;;;;7.35;68.25;99720.55;1780932;79;21078;-66
2021/11/21 03:49:04;;;;;;;8.85;3.85;;;;;;;7.35;68.43;99717.93;1741486;80;21093;-68
2021/11/21 03:51:31;;;;;;;9.18;4.80;;;;;;;7.37;68.58;99715.53;1774592;79;21525;-68
2021/11/21 03:53:58;;;;;;;7.60;4.08;;;;;;;7.36;68.83;99719.58;1774497;79;21635;-68
2021/11/21 03:56:24;;;;;;;9.88;3.92;;;;;;;7.41;68.97;99722.67;1762606;78;21028;-67
2021/11/21 03:58:51;;;;;;;14.35;4.15;;;;;;;7.52;68.81;99722.67;1747039;80;21557;-67
2021/11/21 04:01:18;;;;;;;7.35;3.90;;;;;;;7.59;68.77;99717.80;1758559;79;21342;-71
2021/11/21 04:03:46;;;;;;;8.28;4.35;;;;;;;7.61;68.81;99709.34;1756164;80;21093;-66
2021/11/21 04:06:13;;;;;;;9.50;4.60;;;;;;;7.63;68.90;99713.52;1742988;80;21055;-69
2021/11/21 04:08:41;;;;;;;8.83;4.85;;;;;;;7.66;69.04;99713.73;1765211;79;21086;-68
2021/11/21 04:11:08;;;;;;;8.93;5.22;;;;;;;7.67;69.09;99716.72;1765081;79;21011;-68
2021/11/21 04:13:35;;;;;;;9.05;4.67;;;;;;;7.75;69.26;99721.34;1751306;80;21058;-67
2021/11/21 04:16:02;;;;;;;9.15;4.80;;;;;;;7.87;69.05;99724.31;1767578;79;21063;-69
2021/11/21 04:18:30;;;;;;;7.33;3.67;;;;;;;7.96;68.98;99716.20;1765751;79;21070;-68
2021/11/21 04:20:58;;;;;;;7.62;4.42;;;;;;;8.03;68.92;99719.16;1770141;79;21074;-66
2021/11/21 04:23:29;;;;;;;8.28;4.45;;;;;;;8.04;68.97;99716.91;1764751;79;21113;-70
2021/11/21 04:25:55;;;;;;;7.22;4.25;;;;;;;8.05;68.92;99712.00;1746984;81;21095;-67
2021/11/21 04:28:22;;;;;;;9.70;4.92;;;;;;;8.04;69.02;99715.11;1759635;81;20988;-68
2021/11/21 04:30:49;;;;;;;10.03;5.40;;;;;;;8.02;69.37;99714.41;1764071;79;21090;-68
2021/11/21 04:33:15;;;;;;;8.15;4.60;;;;;;;8.05;69.25;99701.03;1744915;79;21122;-66
2021/11/21 04:35:42;;;;;;;12.40;4.12;;;;;;;8.13;69.25;99701.74;1763365;81;21066;-68
2021/11/21 04:38:08;;;;;;;8.13;4.15;;;;;;;8.19;69.11;99703.39;1760106;79;22345;-65
2021/11/21 04:40:34;;;;;;;11.70;4.92;;;;;;;8.24;69.04;99704.34;1768494;80;21062;-66
2021/11/21 04:43:01;;;;;;;9.30;4.67;;;;;;;8.23;69.07;99707.91;1741339;81;21639;-68
2021/11/21 04:45:28;;;;;;;8.50;4.70;;;;;;;8.23;69.17;99702.66;1765865;79;21608;-72
2021/11/21 04:47:55;;;;;;;10.70;5.05;;;;;;;8.20;69.33;99698.97;1763270;80;21061;-69
2021/11/21 04:50:21;;;;;;;7.83;4.62;;;;;;;8.19;69.38;99693.39;1765480;80;21105;-70
2021/11/21 04:52:48;;;;;;;11.33;4.92;;;;;;;8.24;69.40;99696.93;1742880;80;21146;-69
2021/11/21 04:55:14;;;;;;;7.78;4.42;;;;;;;8.33;69.22;99693.09;1743007;79;21715;-67
2021/11/21 04:57:42;;;;;;;9.18;4.70;;;;;;;8.40;69.25;99685.55;1759562;80;21134;-67
2021/11/21 05:00:16;;;;;;;8.40;4.70;;;;;;;8.46;69.24;99687.71;1766220;79;21054;-63
2021/11/21 05:02:47;;;;;;;8.18;4.78;;;;;;;8.45;69.37;99689.97;1745858;80;21115;-67
2021/11/21 05:05:15;;;;;;;8.45;4.62;;;;;;;8.46;69.55;99698.69;1756633;79;21119;-67
2021/11/21 05:07:42;;;;;;;9.20;4.60;;;;;;;8.45;69.66;99686.52;1768521;79;21157;-69
2021/11/21 05:10:09;;;;;;;8.53;4.80;;;;;;;8.46;69.78;99684.27;1768689;79;21039;-67
2021/11/21 05:12:37;;;;;;;9.38;5.30;;;;;;;8.52;69.76;99691.61;1763675;79;21497;-68
2021/11/21 05:15:07;;;;;;;6.78;4.22;;;;;;;8.62;69.66;99695.13;1763791;79;21992;-70
2021/11/21 05:17:33;;;;;;;10.30;5.58;;;;;;;8.71;69.60;99698.80;1758635;79;22237;-70
2021/11/21 05:20:00;;;;;;;8.00;4.65;;;;;;;8.74;69.60;99695.90;1763136;81;21056;-66
2021/11/21 05:22:28;;;;;;;10.28;5.00;;;;;;;8.76;69.53;99700.56;1758004;79;21050;-65
2021/11/21 05:24:55;;;;;;;8.23;4.78;;;;;;;8.77;69.57;99701.39;1746074;79;21114;-66
2021/11/21 05:27:23;;;;;;;10.85;4.97;;;;;;;8.79;69.50;99700.77;1766350;79;22240;-69
2021/11/21 05:29:52;;;;;;;8.33;4.72;;;;;;;8.79;69.51;99700.77;1763502;79;21155;-66
2021/11/21 05:32:19;;;;;;;9.43;4.75;;;;;;;8.84;69.43;99704.69;1768654;79;21105;-69
2021/11/21 05:34:46;;;;;;;8.13;4.42;;;;;;;8.93;69.15;99693.90;1760505;79;21118;-69
2021/11/21 05:37:13;;;;;;;8.23;4.58;;;;;;;8.98;68.99;99686.47;1760974;79;21117;-65
2021/11/21 05:39:41;;;;;;;8.83;5.05;;;;;;;9.01;68.88;99690.61;1762712;81;21952;-69
2021/11/21 05:42:08;;;;;;;7.67;4.65;;;;;;;9.03;68.81;99687.40;1759349;79;21037;-69
2021/11/21 05:44:35;;;;;;;7.50;4.30;;;;;;;9.02;68.70;99685.73;1762783;80;21059;-68
2021/11/21 05:47:02;;;;;;;8.20;4.37;;;;;;;9.00;68.70;99685.85;1763738;79;21079;-65
2021/11/21 05:49:30;;;;;;;10.82;4.58;;;;;;;9.03;68.54;99675.10;1739545;80;21585;-64
2021/11/21 05:51:57;;;;;;;9.45;4.55;;;;;;;9.11;68.32;99680.99;1760843;79;21192;-62
2021/11/21 05:54:24;;;;;;;8.00;4.72;;;;;;;9.20;68.16;99678.09;1765919;79;21149;-69
2021/11/21 05:56:50;;;;;;;8.20;4.62;;;;;;;9.21;68.06;99676.65;1764029;79;21110;-68
2021/11/21 05:59:17;;;;;;;11.15;4.83;;;;;;;9.21;68.02;99670.55;1759436;79;21063;-68
2021/11/21 06:01:44;;;;;;;8.73;4.20;;;;;;;9.20;67.93;99675.46;1767150;79;20976;-72
2021/11/21 06:04:11;;;;;;;8.63;4.80;;;;;;;9.18;67.92;99674.28;1781187;78;21170;-69
2021/11/21 06:06:38;;;;;;;7.25;4.22;;;;;;;9.15;67.92;99669.28;1777608;78;21065;-70
2021/11/21 06:09:04;;;;;;;8.03;4.47;;;;;;;9.13;67.92;99675.62;1691979;81;21120;-62
2021/11/21 06:11:32;;;;;;;8.38;5.00;;;;;;;9.11;68.02;99681.84;1726871;82;21070;-70
2021/11/21 06:13:59;;;;;;;6.65;4.05;;;;;;;9.19;67.93;99679.86;1727294;81;21094;-68
2021/11/21 06:16:25;;;;;;;10.60;5.60;;;;;;;9.26;67.81;99684.11;1700738;82;21482;-69
2021/11/21 06:18:52;;;;;;;8.70;5.17;;;;;;;9.28;67.85;99688.27;1728451;81;21093;-65
2021/11/21 06:21:18;;;;;;;7.90;5.12;;;;;;;9.30;67.87;99687.66;1716674;80;21132;-67
2021/11/21 06:23:45;;;;;;;9.93;5.28;;;;;;;9.34;67.87;99689.53;1725923;81;21636;-68
2021/11/21 06:26:12;;;;;;;9.63;5.60;;;;;;;9.35;67.81;99686.45;1728840;81;21102;-65
2021/11/21 06:28:39;;;;;;;9.40;5.45;;;;;;;9.36;67.86;99687.59;1709410;82;21025;-69
2021/11/21 06:31:06;;;;;;;9.83;5.17;;;;;;;9.43;67.77;99670.38;1738340;81;21051;-71
2021/11/21 06:33:33;;;;;;;9.70;5.20;;;;;;;9.56;67.57;99679.31;1738543;81;21087;-74
2021/11/21 06:36:02;;;;;;;10.10;5.37;;;;;;;9.65;67.36;99693.47;1735307;81;21118;-67
2021/11/21 06:38:30;;;;;;;10.80;5.37;;;;;;;9.67;67.22;99670.52;1739695;81;21046;-67
2021/11/21 06:40:58;;;;;;;9.30;5.37;;;;;;;9.71;67.12;99682.89;1730358;81;21545;-68
2021/11/21 06:43:26;;;;;;;12.00;4.70;;;;;;;9.70;67.05;99675.96;1729288;81;21066;-73
2021/11/21 06:45:53;;;;;;;9.80;5.72;;;;;;;9.69;67.08;99677.77;1706618;82;21683;-69
2021/11/21 06:48:21;;;;;;;9.18;5.92;;;;;;;9.75;66.99;99688.21;1734957;81;21546;-68
2021/11/21 06:50:51;;;;;;;9.33;4.83;;;;;;;9.84;66.78;99677.73;1703318;80;21173;-69
2021/11/21 06:53:17;;;;;;;9.40;4.95;;;;;;;9.90;66.64;99682.09;1738660;80;21497;-66
2021/11/21 06:55:43;;;;;;;8.98;5.33;;;;;;;9.91;66.58;99691.65;1732256;81;21070;-69
2021/11/21 06:58:10;;;;;;;8.30;5.10;;;;;;;9.90;66.50;99680.78;1740758;81;21067;-74
2021/11/21 07:00:40;;;;;;;10.80;5.97;;;;;;;9.86;66.61;99683.67;1723488;80;21090;-67
2021/11/21 07:03:06;;;;;;;8.80;4.90;;;;;;;9.86;66.61;99688.11;1722694;81;21051;-72
2021/11/21 07:05:34;;;;;;;9.18;5.70;;;;;;;9.83;66.58;99685.74;1724127;81;22602;-69
2021/11/21 07:08:01;;;;;;;8.65;5.10;;;;;;;9.88;66.54;99694.55;1723751;81;21056;-70
2021/11/21 07:10:28;;;;;;;9.38;5.30;;;;;;;9.91;66.35;99673.25;1708760;81;21546;-62
2021/11/21 07:12:55;;;;;;;11.00;5.97;;;;;;;9.92;66.30;99686.72;1716686;81;21841;-74
2021/11/21 07:15:22;;;;;;;10.18;6.17;;;;;;;9.89;66.31;99690.96;1714284;81;21079;-66
2021/11/21 07:17:49;;;;;;;9.68;5.45;;;;;;;9.86;66.40;99680.22;1720046;81;21092;-66
2021/11/21 07:20:17;;;;;;;7.97;4.25;;;;;;;9.86;66.50;99678.42;1721259;81;21583;-63
2021/11/21 07:22:46;;;;;;;8.83;4.97;;;;;;;9.91;66.55;99662.25;1717922;81;21153;-66
2021/11/21 07:25:13;;;;;;;9.48;5.53;;;;;;;10.03;66.21;99682.67;1708565;81;21078;-63
2021/11/21 07:27:44;;;;;;;10.05;5.25;;;;;;;10.10;65.95;99666.69;1718897;81;21130;-68
2021/11/21 07:30:15;;;;;;;10.85;5.33;;;;;;;10.15;65.88;99679.42;1722779;81;21521;-65
2021/11/21 07:32:43;;;;;;;10.20;5.67;;;;;;;10.15;65.77;99678.94;1705198;82;21105;-67
2021/11/21 07:35:11;;;;;;;10.13;5.97;;;;;;;10.16;65.80;99684.55;1717002;81;21102;-66
2021/11/21 07:37:38;;;;;;;9.43;5.40;;;;;;;10.16;65.75;99675.35;1719273;81;21091;-69
2021/11/21 07:40:06;;;;;;;9.80;5.75;;;;;;;10.23;65.68;99689.59;1764833;79;21564;-67
2021/11/21 07:42:33;;;;;;;11.50;6.50;;;;;;;10.33;65.48;99675.17;1762700;79;21379;-69
2021/11/21 07:45:00;;;;;;;8.53;5.87;;;;;;;10.40;65.34;99676.77;1766990;79;21055;-66
2021/11/21 07:47:27;;;;;;;11.00;6.47;;;;;;;10.40;65.31;99680.71;1757145;79;20999;-66
2021/11/21 07:49:55;;;;;;;10.53;6.30;;;;;;;10.36;65.43;99681.97;1766097;79;21114;-72
2021/11/21 07:52:22;;;;;;;10.98;6.12;;;;;;;10.34;65.48;99681.26;1744780;79;21134;-69
2021/11/21 07:54:48;;;;;;;10.60;5.87;;;;;;;10.31;65.53;99687.61;1763487;79;21521;-66
2021/11/21 07:57:15;;;;;;;12.25;6.25;;;;;;;10.30;65.73;99678.54;1761965;79;21712;-67
2021/11/21 07:59:42;;;;;;;9.88;5.83;;;;;;;10.36;65.62;99674.08;1747043;80;21497;-73
2021/11/21 08:02:09;;;;;;;11.12;6.55;;;;;;;10.40;65.49;99678.91;1771709;79;21043;-71
2021/11/21 08:04:37;;;;;;;11.18;6.25;;;;;;;10.39;65.50;99682.52;1780423;78;21061;-66
2021/11/21 08:07:05;;;;;;;10.05;5.97;;;;;;;10.39;65.60;99680.39;1759866;80;21773;-66
2021/11/21 08:09:32;;;;;;;11.73;6.37;;;;;;;10.39;65.64;99680.39;1756531;78;21130;-67
2021/11/21 08:11:58;;;;;;;10.72;5.95;;;;;;;10.40;65.57;99692.05;1755668;80;21054;-66
2021/11/21 08:14:25;;;;;;;11.88;6.45;;;;;;;10.47;65.50;99682.30;1773367;78;21105;-67
2021/11/21 08:16:52;;;;;;;10.23;6.10;;;;;;;10.56;65.13;99686.73;1779780;79;22235;-68
2021/11/21 08:19:19;;;;;;;11.30;6.33;;;;;;;10.60;64.99;99682.84;1776714;79;21030;-65
2021/11/21 08:21:46;;;;;;;10.55;6.08;;;;;;;10.57;65.01;99679.17;1763984;78;21082;-66
2021/11/21 08:24:13;;;;;;;9.65;5.97;;;;;;;10.53;65.07;99685.20;1770196;79;21137;-73
2021/11/21 08:26:39;;;;;;;10.63;5.65;;;;;;;10.51;65.11;99687.15;1782118;79;21074;-70
2021/11/21 08:29:06;;;;;;;10.30;5.95;;;;;;;10.50;65.09;99689.42;1770399;79;21057;-67
2021/11/21 08:31:32;;;;;;;9.88;6.12;;;;;;;10.47;65.09;99690.19;1776128;78;21226;-68
2021/11/21 08:33:59;;;;;;;8.48;5.12;;;;;;;10.51;65.04;99685.02;1776270;78;21074;-67
2021/11/21 08:36:26;;;;;;;10.40;5.70;;;;;;;10.59;64.90;99688.60;1777584;78;21613;-69
2021/11/21 08:38:52;;;;;;;9.48;5.67;;;;;;;10.64;64.84;99677.67;1790067;78;21164;-67
2021/11/21 08:41:19;;;;;;;10.58;6.22;;;;;;;10.67;64.62;99685.75;1771423;78;20984;-70
2021/11/21 08:43:46;;;;;;;8.93;5.50;;;;;;;10.66;64.54;99682.77;1762843;78;21094;-68
2021/11/21 08:46:13;;;;;;;9.98;5.62;;;;;;;10.66;64.61;99679.66;1784218;80;21078;-70
2021/11/21 08:48:40;;;;;;;10.35;5.37;;;;;;;10.68;64.36;99693.50;1778915;78;21046;-66
2021/11/21 08:51:08;;;;;;;10.23;5.60;;;;;;;10.66;64.22;99685.39;1760136;79;21053;-67
2021/11/21 08:53:34;;;;;;;9.75;4.83;;;;;;;10.68;64.26;99679.53;1763790;80;21010;-65
2021/11/21 08:56:01;;;;;;;9.00;5.05;;;;;;;10.75;64.06;99673.54;1781740;78;21127;-66
2021/11/21 08:58:28;;;;;;;10.75;5.20;;;;;;;10.82;63.75;99676.94;1783790;79;21072;-68
2021/11/21 09:00:55;;;;;;;10.25;6.00;;;;;;;10.78;63.22;99668.00;1784030;78;22202;-68
2021/11/21 09:03:21;;;;;;;9.98;5.05;;;;;;;10.78;63.17;99673.27;1765063;78;21070;-68
2021/11/21 09:05:49;;;;;;;8.85;4.92;;;;;;;10.79;63.18;99667.50;1760869;79;21062;-67
2021/11/21 09:08:15;;;;;;;9.88;5.22;;;;;;;10.79;62.80;99664.88;1747375;79;21050;-66
2021/11/21 09:10:43;;;;;;;10.38;6.05;;;;;;;10.76;62.68;99658.60;1757471;79;20979;-70
2021/11/21 09:13:09;;;;;;;9.83;4.83;;;;;;;10.74;62.77;99662.69;1764892;79;21111;-67
2021/11/21 09:15:36;;;;;;;8.60;4.95;;;;;;;10.75;62.64;99667.45;1763593;79;21700;-68
2021/11/21 09:18:03;;;;;;;10.95;4.87;;;;;;;10.80;62.62;99669.17;1701695;82;21588;-69
2021/11/21 09:20:30;;;;;;;8.05;4.47;;;;;;;10.93;62.39;99655.72;1701579;82;21835;-69
2021/11/21 09:22:58;;;;;;;7.30;4.37;;;;;;;11.00;61.54;99653.34;1718879;81;21074;-67
2021/11/21 09:25:24;;;;;;;8.18;4.17;;;;;;;11.01;61.19;99657.62;1720080;82;21717;-64
2021/11/21 09:27:51;;;;;;;8.75;4.30;;;;;;;11.01;61.09;99655.84;1716486;81;21185;-64
2021/11/21 09:30:17;;;;;;;7.50;4.37;;;;;;;11.04;60.89;99652.07;1690500;81;21086;-66
2021/11/21 09:32:44;;;;;;;8.45;4.10;;;;;;;11.05;61.00;99657.69;1718666;81;21139;-64
2021/11/21 09:35:11;;;;;;;7.87;4.37;;;;;;;11.03;60.81;99659.61;1698254;81;21078;-68
2021/11/21 09:37:39;;;;;;;8.30;4.03;;;;;;;11.02;61.05;99655.34;1735213;80;20995;-68
2021/11/21 09:40:07;;;;;;;9.55;4.70;;;;;;;11.00;60.99;99648.91;1709988;81;21102;-65
2021/11/21 09:42:35;;;;;;;7.03;4.12;;;;;;;11.00;60.98;99653.34;1758104;79;21113;-71
2021/11/21 09:45:04;;;;;;;9.35;4.60;;;;;;;10.99;60.76;99652.50;1761835;79;21035;-67
2021/11/21 09:47:30;;;;;;;7.65;4.03;;;;;;;11.01;60.76;99640.05;1754214;80;21051;-68
2021/11/21 09:50:04;;;;;;;7.42;3.95;;;;;;;11.11;60.57;99646.10;1754943;79;21115;-70
2021/11/21 09:52:31;;;;;;;8.18;4.67;;;;;;;11.18;60.43;99638.92;1745423;81;21046;-64
2021/11/21 09:54:59;;;;;;;8.63;4.12;;;;;;;11.18;60.42;99635.82;1753282;79;21652;-72
2021/11/21 09:57:29;;;;;;;6.90;3.90;;;;;;;11.19;60.64;99641.91;1757877;79;21145;-72
2021/11/21 10:00:01;;;;;;;8.15;4.37;;;;;;;11.18;60.67;99637.13;1766027;79;21042;-74
2021/11/21 10:02:42;;;;;;;8.03;3.87;;;;;;;11.15;60.91;99640.88;1766137;79;21360;-69
2021/11/21 10:05:25;;;;;;;6.80;3.80;;;;;;;11.14;61.11;99634.44;1778078;78;21056;-68
2021/11/21 10:08:08;;;;;;;9.13;4.97;;;;;;;11.14;61.21;99637.06;1753450;78;21095;-67
2021/11/21 10:10:48;;;;;;;9.10;4.47;;;;;;;11.12;61.29;99633.26;1778953;78;21072;-68
2021/11/21 10:13:45;;;;;;;8.90;4.35;;;;;;;11.12;61.22;99634.58;1782046;78;21152;-72
2021/11/21 10:16:31;;;;;;;6.90;4.05;;;;;;;11.19;60.92;99625.61;1780088;78;21032;-72
2021/11/21 10:19:03;;;;;;;;;;;;;;;11.35;60.86;99630.27;1780925;78;21412;-68
2021/11/21 10:21:47;;;;;;;8.48;4.55;;;;;;;11.43;60.42;99625.09;1782249;78;20457;-71
2021/11/21 10:24:24;;;;;;;8.08;4.45;;;;;;;11.36;60.53;99616.10;1779745;78;21167;-70
2021/11/21 10:27:12;;;;;;;9.63;4.92;;;;;;;11.36;60.71;99616.59;1777421;78;21049;-70
2021/11/21 10:29:41;;;;;;;9.38;4.50;;;;;;;11.36;60.70;99621.87;1783546;78;21046;-68
2021/11/21 10:32:23;;;;;;;8.00;4.08;;;;;;;11.33;60.65;99621.19;1784135;78;21108;-71
2021/11/21 10:34:54;;;;;;;8.93;5.00;;;;;;;11.30;60.79;99619.34;1780838;79;21104;-67
2021/11/21 10:37:29;;;;;;;10.30;4.45;;;;;;;11.28;60.92;99606.31;1777995;79;21135;-69
2021/11/21 10:39:59;;;;;;;8.40;4.77;;;;;;;11.29;60.61;99613.22;1756036;80;21098;-72
2021/11/21 10:42:26;;;;;;;9.48;5.12;;;;;;;11.26;60.46;99616.64;1757512;79;21144;-75
2021/11/21 10:44:56;;;;;;;9.03;4.33;;;;;;;11.26;60.43;99612.22;1785573;78;21034;-75
2021/11/21 10:47:22;;;;;;;7.75;4.10;;;;;;;11.27;60.39;99603.33;1785627;79;21621;-69
2021/11/21 10:49:52;;;;;;;7.45;4.50;;;;;;;11.35;59.94;99605.24;1778768;79;21089;-70
2021/11/21 10:52:22;;;;;;;10.10;5.30;;;;;;;11.39;59.64;99604.45;1753689;80;21152;-71
2021/11/21 10:54:57;;;;;;;9.45;4.97;;;;;;;11.40;59.55;99598.20;1778384;78;21033;-72
2021/11/21 10:57:29;;;;;;;9.73;4.78;;;;;;;11.39;59.62;99601.33;1787158;78;21089;-65
2021/11/21 11:00:04;;;;;;;9.30;5.20;;;;;;;11.38;59.44;99608.05;1778198;78;21564;-68
2021/11/21 11:02:42;;;;;;;10.70;5.08;;;;;;;11.34;59.44;99598.30;1777860;78;21539;-67
2021/11/21 11:07:43;;;;;;;9.30;4.90;;;;;;;11.32;59.50;99593.19;1860558;75;22793;-68
2021/11/21 11:10:22;;;;;;;8.50;4.80;;;;;;;11.24;59.62;99590.45;1835337;77;21053;-70
2021/11/21 11:12:59;;;;;;;8.60;5.37;;;;;;;11.25;59.61;99586.85;1815280;77;21167;-67
2021/11/21 11:15:27;;;;;;;9.25;5.28;;;;;;;11.25;59.32;99593.44;1837826;77;21668;-68
2021/11/21 11:17:53;;;;;;;9.20;5.30;;;;;;;11.24;59.16;99593.08;1842924;77;20963;-69
2021/11/21 11:20:21;;;;;;;8.93;4.85;;;;;;;11.23;59.18;99576.11;1834947;77;21017;-66
2021/11/21 11:22:48;;;;;;;8.98;4.72;;;;;;;11.25;59.14;99578.95;1808358;76;21144;-68
2021/11/21 11:25:25;;;;;;;9.43;4.53;;;;;;;11.26;58.88;99574.04;1837777;77;21119;-59
2021/11/21 11:28:11;;;;;;;8.98;4.53;;;;;;;11.26;58.76;99579.30;1838565;77;21545;-62
2021/11/21 11:30:39;;;;;;;10.18;4.97;;;;;;;11.24;58.87;99575.14;1783292;78;21688;-67
2021/11/21 11:33:14;;;;;;;8.55;4.45;;;;;;;11.23;58.88;99576.96;1784312;78;21086;-63
2021/11/21 11:35:47;;;;;;;10.35;5.83;;;;;;;11.31;58.91;99585.42;1798993;78;20982;-70
2021/11/21 11:38:26;;;;;;;8.55;4.85;;;;;;;11.41;58.62;99579.61;1806648;78;21072;-72
2021/11/21 11:40:56;;;;;;;10.45;5.33;;;;;;;11.49;58.46;99576.25;1795503;77;21552;-70
2021/11/21 11:43:37;;;;;;;7.65;4.42;;;;;;;11.48;58.02;99586.44;1803097;77;21061;-74
2021/11/21 11:46:23;;;;;;;8.83;4.85;;;;;;;11.47;58.26;99559.27;1784624;79;21679;-69